Time;durP1;ratioP1;P1;durP2;ratioP2;P2;SDS_P1;SDS_P2;PMS_P1;PMS_P2;Temp;Humidity;BMP_temperature;BMP_pressure;BME280_temperature;BME280_humidity;BME280_pressure;Samples;Min_cycle;Max_cycle;Signal;HPM_P1;HPM_P2
2022/01/11 00:00:40;;;;;;;15.32;3.50;;;20.40;54.00;;;;;;4480539;32;20136;-67
2022/01/11 00:03:06;;;;;;;13.15;3.13;;;20.30;54.00;;;;;;4480227;32;20110;-67
2022/01/11 00:06:00;;;;;;;14.93;2.67;;;20.30;54.00;;;;;;4480274;31;20132;-67
2022/01/11 00:08:29;;;;;;;9.10;3.22;;;20.20;54.00;;;;;;4479419;32;20153;-67
2022/01/11 00:11:02;;;;;;;11.48;3.17;;;20.20;54.00;;;;;;4492225;31;20263;-67
2022/01/11 00:13:29;;;;;;;9.95;3.00;;;20.10;54.00;;;;;;4480204;31;20195;-67
2022/01/11 00:15:55;;;;;;;18.17;3.50;;;20.10;54.10;;;;;;4478033;32;20135;-67
2022/01/11 00:18:21;;;;;;;12.05;3.00;;;20.10;54.10;;;;;;4480302;32;20153;-67
2022/01/11 00:20:48;;;;;;;11.05;2.80;;;20.10;54.10;;;;;;4471464;31;20283;-67
2022/01/11 00:25:45;;;;;;;6.43;2.78;;;20.00;54.10;;;;;;4464901;32;20132;-67
2022/01/11 00:28:14;;;;;;;9.68;2.70;;;20.00;55.10;;;;;;4476749;31;20125;-68
2022/01/11 00:30:42;;;;;;;8.55;2.80;;;19.90;54.10;;;;;;4464658;32;20159;-68
2022/01/11 00:33:13;;;;;;;9.02;2.92;;;19.90;54.10;;;;;;4476379;32;20141;-68
2022/01/11 00:35:45;;;;;;;6.80;2.67;;;19.90;54.20;;;;;;4464865;32;20259;-68
2022/01/11 00:38:15;;;;;;;9.00;2.75;;;19.80;54.20;;;;;;4464688;32;20263;-68
2022/01/11 00:40:46;;;;;;;14.20;3.03;;;19.80;54.20;;;;;;4467016;32;20167;-68
2022/01/11 00:43:13;;;;;;;8.88;2.45;;;19.80;54.20;;;;;;4478644;31;20282;-67
2022/01/11 00:45:39;;;;;;;10.00;3.15;;;19.70;54.20;;;;;;4479062;31;20629;-67
2022/01/11 00:48:05;;;;;;;7.55;2.33;;;19.70;54.20;;;;;;4479226;31;20207;-68
2022/01/11 00:50:32;;;;;;;7.07;2.20;;;19.70;54.20;;;;;;4478459;32;20145;-67
2022/01/11 00:52:59;;;;;;;6.72;2.78;;;19.60;54.20;;;;;;4478858;32;20125;-68
2022/01/11 00:55:25;;;;;;;6.18;2.60;;;19.60;54.20;;;;;;4479936;32;20132;-68
2022/01/11 00:57:50;;;;;;;6.85;2.70;;;19.60;54.20;;;;;;4476705;31;20596;-67
2022/01/11 01:00:16;;;;;;;8.13;2.38;;;19.60;54.20;;;;;;4479287;32;20148;-68
2022/01/11 01:02:43;;;;;;;4.53;2.40;;;19.50;54.20;;;;;;4478638;31;20120;-68
2022/01/11 01:05:09;;;;;;;5.57;2.20;;;19.50;54.20;;;;;;4477103;31;20145;-68
2022/01/11 01:07:35;;;;;;;9.82;2.92;;;19.50;54.20;;;;;;4478441;31;20148;-68
2022/01/11 01:10:14;;;;;;;7.30;2.78;;;19.50;54.30;;;;;;4477263;31;20133;-67
2022/01/11 01:12:40;;;;;;;5.80;2.50;;;19.50;54.30;;;;;;4480439;31;20132;-67
2022/01/11 01:15:06;;;;;;;5.50;2.45;;;19.50;54.40;;;;;;4480065;32;20191;-67
2022/01/11 01:17:32;;;;;;;4.95;2.17;;;19.40;54.30;;;;;;4480300;32;20140;-66
2022/01/11 01:19:58;;;;;;;6.07;2.33;;;19.40;54.30;;;;;;4479024;32;20121;-68
2022/01/11 01:22:25;;;;;;;5.65;2.33;;;19.40;54.30;;;;;;4479503;32;20155;-68
2022/01/11 01:24:50;;;;;;;5.28;2.40;;;19.40;54.40;;;;;;4479564;32;20168;-67
2022/01/11 01:27:16;;;;;;;4.03;2.28;;;19.40;54.40;;;;;;4480425;32;20147;-68
2022/01/11 01:29:42;;;;;;;11.32;2.70;;;19.30;54.30;;;;;;4479013;32;20239;-68
2022/01/11 01:32:09;;;;;;;6.50;2.33;;;19.30;54.30;;;;;;4480143;32;20163;-67
2022/01/11 01:34:35;;;;;;;5.60;2.20;;;19.30;54.40;;;;;;4478426;32;20190;-68
2022/01/11 01:37:02;;;;;;;4.85;2.13;;;19.30;54.30;;;;;;4492340;32;20133;-69
2022/01/11 01:39:28;;;;;;;3.85;2.25;;;19.30;54.40;;;;;;4479586;32;20140;-68
2022/01/11 01:41:54;;;;;;;5.43;2.05;;;19.20;54.30;;;;;;4491697;32;20275;-68
2022/01/11 01:44:20;;;;;;;8.13;2.50;;;19.20;54.30;;;;;;4482200;32;20133;-68
2022/01/11 01:46:46;;;;;;;4.10;2.13;;;19.20;54.40;;;;;;4481933;32;20137;-68
2022/01/11 01:49:18;;;;;;;6.32;1.88;;;19.20;54.30;;;;;;4483100;32;20113;-68
2022/01/11 01:51:45;;;;;;;6.00;2.20;;;19.20;54.40;;;;;;4482834;32;20133;-68
2022/01/11 01:54:13;;;;;;;5.95;2.40;;;19.20;54.30;;;;;;4483151;32;20131;-68
2022/01/11 01:56:39;;;;;;;5.45;2.20;;;19.20;54.40;;;;;;4483205;32;20136;-68
2022/01/11 01:59:05;;;;;;;6.00;2.13;;;19.10;54.40;;;;;;4482680;32;20144;-68
2022/01/11 02:01:37;;;;;;;4.53;2.03;;;19.10;55.30;;;;;;4495272;31;20141;-67
2022/01/11 02:04:03;;;;;;;3.30;1.90;;;19.10;54.40;;;;;;4483067;32;20113;-68
2022/01/11 02:06:29;;;;;;;5.15;2.33;;;19.10;54.40;;;;;;4482998;32;20143;-67
2022/01/11 02:08:54;;;;;;;4.97;1.90;;;19.00;54.40;;;;;;4483112;32;20124;-67
2022/01/11 02:11:23;;;;;;;6.03;2.35;;;19.00;54.30;;;;;;4482863;32;20219;-67
2022/01/11 02:13:50;;;;;;;6.30;2.13;;;19.00;54.40;;;;;;4482777;31;20136;-68
2022/01/11 02:16:19;;;;;;;3.28;2.13;;;19.00;54.40;;;;;;4482618;32;20326;-68
2022/01/11 02:18:46;;;;;;;6.18;2.30;;;19.00;54.30;;;;;;4482875;32;20129;-67
2022/01/11 02:21:12;;;;;;;4.88;1.85;;;19.00;54.40;;;;;;4494863;31;20133;-68
2022/01/11 02:23:39;;;;;;;5.95;2.20;;;18.90;54.30;;;;;;4482711;32;20734;-67
2022/01/11 02:26:06;;;;;;;4.18;1.98;;;18.90;54.30;;;;;;4481827;32;20144;-68
2022/01/11 02:28:32;;;;;;;5.50;1.95;;;18.90;54.40;;;;;;4482615;32;20274;-67
2022/01/11 02:31:00;;;;;;;4.22;1.90;;;18.90;54.40;;;;;;4481454;32;20152;-68
2022/01/11 02:33:33;;;;;;;3.10;1.88;;;18.90;54.40;;;;;;4481118;32;20109;-67
2022/01/11 02:36:00;;;;;;;2.47;1.92;;;18.90;54.40;;;;;;4482516;32;20125;-67
2022/01/11 02:38:26;;;;;;;4.10;1.83;;;18.90;54.40;;;;;;4482653;32;20105;-67
2022/01/11 02:40:52;;;;;;;2.88;1.92;;;18.90;54.40;;;;;;4482113;32;20140;-66
2022/01/11 02:43:18;;;;;;;3.55;1.90;;;18.80;54.30;;;;;;4494674;31;20191;-67
2022/01/11 02:45:44;;;;;;;3.05;1.92;;;18.80;54.30;;;;;;4482190;32;20191;-67
2022/01/11 02:48:10;;;;;;;4.05;2.38;;;18.80;54.30;;;;;;4482578;32;20127;-67
2022/01/11 02:50:36;;;;;;;4.05;2.00;;;18.80;54.30;;;;;;4480970;32;20140;-66
2022/01/11 02:53:03;;;;;;;3.30;2.00;;;18.80;54.30;;;;;;4481677;32;20179;-66
2022/01/11 02:55:29;;;;;;;3.95;1.73;;;18.80;54.30;;;;;;4481015;31;20149;-67
2022/01/11 02:57:55;;;;;;;4.40;1.95;;;18.80;54.30;;;;;;4481063;31;20454;-67
2022/01/11 03:00:23;;;;;;;3.05;2.05;;;18.70;54.20;;;;;;4481808;31;20129;-66
2022/01/11 03:02:49;;;;;;;3.30;1.90;;;18.70;54.20;;;;;;4493100;31;20168;-66
2022/01/11 03:05:15;;;;;;;3.13;1.75;;;18.70;54.20;;;;;;4493709;31;20731;-66
2022/01/11 03:07:43;;;;;;;4.35;1.92;;;18.70;54.20;;;;;;4481147;31;20143;-66
2022/01/11 03:12:53;;;;;;;4.22;2.00;;;18.70;54.20;;;;;;4480655;31;20136;-66
2022/01/11 03:15:19;;;;;;;2.80;2.00;;;18.60;54.20;;;;;;4492298;31;20132;-66
2022/01/11 03:17:46;;;;;;;4.70;2.25;;;18.60;54.10;;;;;;4479341;32;20433;-66
2022/01/11 03:20:12;;;;;;;2.88;1.83;;;18.60;54.00;;;;;;4479016;32;20191;-66
2022/01/11 03:22:38;;;;;;;2.67;1.70;;;18.60;54.00;;;;;;4479500;32;20259;-67
2022/01/11 03:25:06;;;;;;;3.67;2.13;;;18.60;54.10;;;;;;4480815;31;20147;-66
2022/01/11 03:27:32;;;;;;;3.67;1.65;;;18.60;54.00;;;;;;4480739;32;20143;-67
2022/01/11 03:29:58;;;;;;;2.65;1.73;;;18.60;54.00;;;;;;4494086;31;20121;-67
2022/01/11 03:32:24;;;;;;;3.53;2.00;;;18.50;53.90;;;;;;4481720;32;20121;-66
2022/01/11 03:34:50;;;;;;;3.70;2.38;;;18.50;53.90;;;;;;4480595;32;20112;-67
2022/01/11 03:37:17;;;;;;;3.42;1.95;;;18.50;53.90;;;;;;4493643;31;20279;-66
2022/01/11 03:39:44;;;;;;;4.13;2.00;;;18.50;53.90;;;;;;4481659;31;20146;-66
2022/01/11 03:42:11;;;;;;;3.70;2.30;;;18.50;53.80;;;;;;4493294;31;20149;-67
2022/01/11 03:44:37;;;;;;;3.30;2.13;;;18.50;54.70;;;;;;4493602;31;20159;-67
2022/01/11 03:47:03;;;;;;;3.20;2.38;;;18.50;53.70;;;;;;4481522;31;20137;-66
2022/01/11 03:49:29;;;;;;;3.17;2.17;;;18.50;53.70;;;;;;4480932;31;20128;-67
2022/01/11 03:51:56;;;;;;;3.17;1.88;;;18.40;53.70;;;;;;4480238;32;20113;-66
2022/01/11 03:54:28;;;;;;;2.20;1.95;;;18.50;53.70;;;;;;4481343;31;20151;-66
2022/01/11 03:56:54;;;;;;;2.83;1.95;;;18.40;53.70;;;;;;4493650;31;20117;-66
2022/01/11 03:59:21;;;;;;;4.03;2.20;;;18.40;53.60;;;;;;4480110;32;20133;-66
2022/01/11 04:01:47;;;;;;;3.67;2.17;;;18.40;53.70;;;;;;4481505;31;20246;-67
2022/01/11 04:04:15;;;;;;;3.85;1.95;;;18.40;53.70;;;;;;4480377;31;20383;-66
2022/01/11 04:06:41;;;;;;;2.55;1.85;;;18.40;53.70;;;;;;4480404;32;20186;-66
2022/01/11 04:09:09;;;;;;;2.63;2.25;;;18.30;53.60;;;;;;4481284;31;20145;-66
2022/01/11 04:11:36;;;;;;;3.85;2.30;;;18.40;53.70;;;;;;4480050;32;20145;-66
2022/01/11 04:14:02;;;;;;;2.78;2.10;;;18.30;53.50;;;;;;4481041;31;20133;-66
2022/01/11 04:16:28;;;;;;;3.53;2.22;;;18.30;53.60;;;;;;4481005;31;20176;-66
2022/01/11 04:18:53;;;;;;;2.85;2.30;;;18.30;53.50;;;;;;4493042;31;20199;-67
2022/01/11 04:21:19;;;;;;;4.43;2.22;;;18.30;53.50;;;;;;4479862;32;20243;-67
2022/01/11 04:23:45;;;;;;;3.72;2.30;;;18.30;53.50;;;;;;4480790;32;20529;-66
2022/01/11 04:26:12;;;;;;;2.75;2.08;;;18.30;53.50;;;;;;4479816;32;20140;-67
2022/01/11 04:28:38;;;;;;;3.95;2.42;;;18.30;53.50;;;;;;4479610;32;20131;-66
2022/01/11 04:31:04;;;;;;;3.20;2.17;;;18.30;53.40;;;;;;4480976;31;20125;-66
2022/01/11 04:33:31;;;;;;;3.50;2.30;;;18.20;53.30;;;;;;4479677;32;20141;-67
2022/01/11 04:35:58;;;;;;;3.58;2.60;;;18.20;53.30;;;;;;4492905;31;20151;-67
2022/01/11 04:38:27;;;;;;;3.80;2.42;;;18.20;53.30;;;;;;4480964;31;20117;-67
2022/01/11 04:40:53;;;;;;;3.72;2.53;;;18.20;53.30;;;;;;4480412;31;20121;-67
2022/01/11 04:43:20;;;;;;;3.88;2.28;;;18.20;53.30;;;;;;4480656;31;20530;-66
2022/01/11 04:45:47;;;;;;;3.15;2.50;;;18.20;53.30;;;;;;4479515;32;20117;-66
2022/01/11 04:48:14;;;;;;;3.30;2.60;;;18.20;53.30;;;;;;4479901;31;20124;-67
2022/01/11 04:50:40;;;;;;;3.38;2.60;;;18.10;53.20;;;;;;4480229;31;20145;-67
2022/01/11 04:53:06;;;;;;;3.70;2.50;;;18.10;53.20;;;;;;4492508;31;20144;-66
2022/01/11 04:55:32;;;;;;;5.15;2.75;;;18.10;53.10;;;;;;4480783;32;20117;-67
2022/01/11 04:57:59;;;;;;;3.55;2.58;;;18.10;53.10;;;;;;4492611;31;20247;-66
2022/01/11 05:00:26;;;;;;;4.97;3.30;;;18.10;53.10;;;;;;4480448;32;20129;-67
2022/01/11 05:02:55;;;;;;;2.97;2.30;;;18.10;53.00;;;;;;4480220;31;20152;-67
2022/01/11 05:05:23;;;;;;;3.92;2.70;;;18.10;53.10;;;;;;4492457;31;20137;-66
2022/01/11 05:07:49;;;;;;;3.80;2.75;;;18.10;53.10;;;;;;4480138;31;20129;-66
2022/01/11 05:10:15;;;;;;;3.58;2.70;;;18.10;53.10;;;;;;4480158;32;20186;-66
2022/01/11 05:12:41;;;;;;;3.42;2.72;;;18.10;53.00;;;;;;4479494;32;20256;-67
2022/01/11 05:15:10;;;;;;;3.42;2.97;;;18.00;53.00;;;;;;4479774;32;20121;-66
2022/01/11 05:17:37;;;;;;;3.28;2.78;;;18.00;52.90;;;;;;4480445;31;20145;-67
2022/01/11 05:20:04;;;;;;;6.18;2.88;;;18.00;53.00;;;;;;4480125;32;20191;-66
2022/01/11 05:22:30;;;;;;;3.60;2.88;;;18.00;52.90;;;;;;4480597;32;20145;-67
2022/01/11 05:24:56;;;;;;;4.50;3.00;;;18.00;52.90;;;;;;4478970;32;20132;-66
2022/01/11 05:27:23;;;;;;;4.60;3.30;;;18.00;52.90;;;;;;4492282;31;20203;-66
2022/01/11 05:29:49;;;;;;;3.65;2.70;;;17.90;52.90;;;;;;4480200;32;20151;-67
2022/01/11 05:32:16;;;;;;;4.03;3.05;;;17.90;52.80;;;;;;4479944;32;20136;-66
2022/01/11 05:34:42;;;;;;;4.35;3.20;;;17.90;52.90;;;;;;4480301;32;20471;-67
2022/01/11 05:37:07;;;;;;;3.80;2.83;;;17.90;52.90;;;;;;4480239;32;20135;-66
2022/01/11 05:39:33;;;;;;;4.25;2.80;;;17.90;52.90;;;;;;4480041;32;20117;-66
2022/01/11 05:42:00;;;;;;;4.55;3.40;;;17.90;52.90;;;;;;4491840;32;20129;-66
2022/01/11 05:44:26;;;;;;;3.20;2.67;;;17.90;52.90;;;;;;4478823;32;20121;-66
2022/01/11 05:46:52;;;;;;;4.15;2.83;;;17.90;52.90;;;;;;4480128;32;20235;-66
2022/01/11 05:49:18;;;;;;;3.92;3.30;;;17.90;52.90;;;;;;4478555;32;20153;-66
2022/01/11 05:51:43;;;;;;;5.20;2.88;;;17.90;52.90;;;;;;4480089;32;20255;-66
2022/01/11 05:54:09;;;;;;;3.15;2.67;;;17.90;52.90;;;;;;4479975;32;20117;-66
2022/01/11 05:56:35;;;;;;;4.55;2.88;;;17.80;52.90;;;;;;4479867;32;20125;-66
2022/01/11 05:59:01;;;;;;;3.97;3.10;;;17.80;52.90;;;;;;4479644;32;20121;-66
2022/01/11 06:01:27;;;;;;;4.10;2.80;;;17.80;52.90;;;;;;4480039;32;20133;-67
2022/01/11 06:03:53;;;;;;;3.40;2.72;;;17.80;52.90;;;;;;4479895;32;20133;-67
2022/01/11 06:06:19;;;;;;;4.35;2.95;;;17.80;52.90;;;;;;4479609;32;20117;-66
2022/01/11 06:08:45;;;;;;;4.50;3.08;;;17.80;52.90;;;;;;4479214;32;20109;-66
2022/01/11 06:11:12;;;;;;;3.80;3.08;;;17.80;52.90;;;;;;4479657;32;20121;-66
2022/01/11 06:13:37;;;;;;;4.28;3.15;;;17.80;52.90;;;;;;4479047;32;20125;-67
2022/01/11 06:16:04;;;;;;;3.05;2.70;;;17.80;52.90;;;;;;4479725;32;20173;-66
2022/01/11 06:18:30;;;;;;;4.10;3.10;;;17.80;52.90;;;;;;4478695;32;20489;-66
2022/01/11 06:20:56;;;;;;;3.78;3.05;;;17.80;52.90;;;;;;4479797;32;20141;-66
2022/01/11 06:23:22;;;;;;;4.28;3.10;;;17.70;52.90;;;;;;4479739;32;20730;-66
2022/01/11 06:25:48;;;;;;;4.72;2.90;;;17.70;52.80;;;;;;4480151;32;20238;-67
2022/01/11 06:28:15;;;;;;;4.13;2.88;;;17.70;52.90;;;;;;4491465;32;20271;-66
2022/01/11 06:30:40;;;;;;;4.93;3.10;;;17.70;52.80;;;;;;4481733;32;20140;-67
2022/01/11 06:33:08;;;;;;;3.83;3.17;;;17.70;52.80;;;;;;4482483;32;20137;-66
2022/01/11 06:35:34;;;;;;;4.50;3.13;;;17.70;52.80;;;;;;4482589;32;20203;-66
2022/01/11 06:38:00;;;;;;;5.32;3.60;;;17.70;52.80;;;;;;4482441;31;20141;-67
2022/01/11 06:40:26;;;;;;;3.22;2.90;;;17.60;52.80;;;;;;4481121;32;20117;-66
2022/01/11 06:42:53;;;;;;;4.15;3.00;;;17.70;52.80;;;;;;4482915;31;20270;-67
2022/01/11 06:45:21;;;;;;;4.90;3.40;;;17.60;52.80;;;;;;4482160;31;20125;-66
2022/01/11 06:47:47;;;;;;;4.47;3.50;;;17.60;52.80;;;;;;4482493;31;20151;-66
2022/01/11 06:50:12;;;;;;;4.22;3.28;;;17.60;52.80;;;;;;4481945;32;20482;-66
2022/01/11 06:52:39;;;;;;;4.00;3.17;;;17.60;52.80;;;;;;4482620;32;20109;-66
2022/01/11 06:55:07;;;;;;;3.75;2.92;;;17.60;52.80;;;;;;4482133;31;20139;-67
2022/01/11 06:57:33;;;;;;;4.35;3.50;;;17.60;52.70;;;;;;4493976;31;20121;-66
2022/01/11 06:59:59;;;;;;;4.90;3.10;;;17.60;52.70;;;;;;4482354;32;20133;-67
2022/01/11 07:02:25;;;;;;;4.53;3.35;;;17.60;52.70;;;;;;4481921;31;20144;-66
2022/01/11 07:04:51;;;;;;;5.25;3.20;;;17.50;52.70;;;;;;4482369;32;20605;-66
2022/01/11 07:07:19;;;;;;;4.13;3.03;;;17.60;52.80;;;;;;4482022;32;20628;-66
2022/01/11 07:09:44;;;;;;;3.85;3.13;;;17.50;52.70;;;;;;4480995;32;20133;-66
2022/01/11 07:12:10;;;;;;;5.03;3.28;;;17.50;52.70;;;;;;4480863;32;20148;-66
2022/01/11 07:14:36;;;;;;;5.70;3.55;;;17.50;52.70;;;;;;4481773;31;20125;-67
2022/01/11 07:17:02;;;;;;;4.85;3.22;;;17.50;52.70;;;;;;4482276;31;20129;-66
2022/01/11 07:19:29;;;;;;;4.25;3.50;;;17.50;52.70;;;;;;4480312;31;20178;-67
2022/01/11 07:21:59;;;;;;;5.28;3.47;;;17.50;52.70;;;;;;4482166;32;20127;-66
2022/01/11 07:24:25;;;;;;;4.15;3.28;;;17.50;52.70;;;;;;4481918;32;20586;-66
2022/01/11 07:26:51;;;;;;;5.13;3.63;;;17.50;52.70;;;;;;4482057;31;20187;-66
2022/01/11 07:29:18;;;;;;;5.03;3.60;;;17.40;52.60;;;;;;4481832;31;20235;-66
2022/01/11 07:31:44;;;;;;;5.22;3.65;;;17.50;52.70;;;;;;4481514;32;20125;-66
2022/01/11 07:34:10;;;;;;;4.90;3.40;;;17.40;52.60;;;;;;4494095;31;20160;-66
2022/01/11 07:36:37;;;;;;;5.03;3.47;;;17.40;52.70;;;;;;4480194;32;20191;-66
2022/01/11 07:39:04;;;;;;;4.30;3.25;;;17.40;52.70;;;;;;4481797;31;20149;-67
2022/01/11 07:41:31;;;;;;;5.00;3.50;;;17.40;52.70;;;;;;4493181;31;20147;-66
2022/01/11 07:43:57;;;;;;;4.65;3.42;;;17.40;52.70;;;;;;4480691;32;20152;-67
2022/01/11 07:46:26;;;;;;;4.15;3.38;;;17.40;52.70;;;;;;4481484;31;20140;-66
2022/01/11 07:48:52;;;;;;;4.85;3.50;;;17.40;52.70;;;;;;4480215;32;20176;-66
2022/01/11 07:51:18;;;;;;;6.57;3.40;;;17.40;52.70;;;;;;4493698;31;20373;-67
2022/01/11 07:53:44;;;;;;;4.60;3.50;;;17.40;52.60;;;;;;4480149;31;20140;-66
2022/01/11 07:56:09;;;;;;;5.60;3.60;;;17.40;52.60;;;;;;4479942;32;20341;-66
2022/01/11 07:58:35;;;;;;;4.97;3.78;;;17.30;52.50;;;;;;4479605;32;20179;-66
2022/01/11 08:01:02;;;;;;;4.93;3.40;;;17.30;52.60;;;;;;4491789;31;20271;-66
2022/01/11 08:03:28;;;;;;;5.05;3.60;;;17.30;52.60;;;;;;4479627;32;20238;-66
2022/01/11 08:05:54;;;;;;;4.88;3.63;;;17.30;52.60;;;;;;4478711;32;20137;-66
2022/01/11 08:08:20;;;;;;;5.28;3.83;;;17.30;52.60;;;;;;4478917;32;20294;-66
2022/01/11 08:10:46;;;;;;;6.55;4.40;;;17.30;52.60;;;;;;4479329;32;20124;-66
2022/01/11 08:13:11;;;;;;;7.57;4.10;;;17.30;52.60;;;;;;4480568;32;20194;-65
2022/01/11 08:15:38;;;;;;;12.98;7.97;;;17.20;52.50;;;;;;4480181;31;20892;-64
2022/01/11 08:18:05;;;;;;;12.35;8.27;;;17.30;51.20;;;;;;4479192;32;20141;-64
2022/01/11 08:20:31;;;;;;;11.60;7.30;;;17.20;49.80;;;;;;4492019;31;20192;-65
2022/01/11 08:22:57;;;;;;;11.75;7.53;;;17.20;49.00;;;;;;4479808;31;20678;-66
2022/01/11 08:25:24;;;;;;;11.27;6.50;;;17.20;48.70;;;;;;4478170;32;20788;-66
2022/01/11 08:27:50;;;;;;;9.77;6.53;;;17.10;49.50;;;;;;4491545;31;20141;-66
2022/01/11 08:30:18;;;;;;;9.57;6.95;;;17.10;50.10;;;;;;4478059;31;20159;-66
2022/01/11 08:32:44;;;;;;;11.32;6.22;;;17.10;50.30;;;;;;4478817;31;20137;-66
2022/01/11 08:35:10;;;;;;;10.13;6.35;;;17.10;50.60;;;;;;4478878;32;20708;-66
2022/01/11 08:37:37;;;;;;;9.05;6.20;;;17.20;50.80;;;;;;4478565;31;20151;-66
2022/01/11 08:40:04;;;;;;;9.45;5.20;;;17.20;50.80;;;;;;4480090;31;20113;-65
2022/01/11 08:42:30;;;;;;;8.98;5.68;;;17.20;50.80;;;;;;4491913;31;20156;-65
2022/01/11 08:45:00;;;;;;;8.07;5.75;;;17.30;50.70;;;;;;4479500;31;20271;-66
2022/01/11 08:47:30;;;;;;;8.52;4.97;;;17.40;50.60;;;;;;4479962;31;20202;-66
2022/01/11 08:49:59;;;;;;;9.57;5.80;;;17.50;50.40;;;;;;4478296;32;20172;-64
2022/01/11 08:52:26;;;;;;;7.68;5.38;;;17.60;50.10;;;;;;4479710;31;20117;-66
2022/01/11 08:54:52;;;;;;;8.85;5.03;;;17.80;49.90;;;;;;4473594;31;20207;-67
2022/01/11 08:57:19;;;;;;;6.90;4.93;;;17.90;49.70;;;;;;4464336;32;20122;-67
2022/01/11 08:59:46;;;;;;;7.72;5.22;;;18.00;49.40;;;;;;4476132;32;20129;-67
2022/01/11 09:02:13;;;;;;;9.07;5.20;;;18.10;49.30;;;;;;4477219;32;20120;-67
2022/01/11 09:04:40;;;;;;;10.98;5.65;;;18.20;49.10;;;;;;4480625;31;20140;-67
2022/01/11 09:07:06;;;;;;;8.43;5.50;;;18.30;49.00;;;;;;4480173;32;20151;-67
2022/01/11 09:09:32;;;;;;;7.75;4.70;;;18.40;48.80;;;;;;4491587;31;20156;-66
2022/01/11 09:12:06;;;;;;;7.78;4.80;;;18.50;48.60;;;;;;4475571;31;20597;-66
2022/01/11 09:14:33;;;;;;;7.23;4.80;;;18.70;48.70;;;;;;4491816;31;20140;-66
2022/01/11 09:17:02;;;;;;;9.07;4.50;;;18.80;48.60;;;;;;4491707;31;20125;-67
2022/01/11 09:19:29;;;;;;;5.63;4.40;;;18.90;48.50;;;;;;4479316;32;20526;-66
2022/01/11 09:21:55;;;;;;;8.35;4.65;;;19.10;48.90;;;;;;4479481;31;20121;-65
2022/01/11 09:24:23;;;;;;;7.47;4.65;;;19.20;48.60;;;;;;4479627;32;20255;-65
2022/01/11 09:26:49;;;;;;;9.57;4.90;;;19.30;48.40;;;;;;4479068;32;20190;-65
2022/01/11 09:29:15;;;;;;;7.07;4.40;;;19.40;48.30;;;;;;4478937;32;20137;-66
2022/01/11 09:31:42;;;;;;;7.45;4.80;;;19.50;48.10;;;;;;4480267;32;20206;-66
2022/01/11 09:34:08;;;;;;;8.88;4.50;;;19.60;48.10;;;;;;4479919;32;20187;-67
2022/01/11 09:36:34;;;;;;;6.53;4.15;;;19.70;48.00;;;;;;4478688;32;20300;-66
2022/01/11 09:39:00;;;;;;;10.30;5.45;;;19.80;48.00;;;;;;4480165;32;20109;-65
2022/01/11 09:41:27;;;;;;;11.00;4.50;;;19.80;47.70;;;;;;4479820;32;20180;-67
2022/01/11 09:43:52;;;;;;;9.60;4.43;;;19.90;47.60;;;;;;4479625;32;20303;-68
2022/01/11 09:46:18;;;;;;;8.10;4.93;;;20.00;47.40;;;;;;4476917;32;20124;-66
2022/01/11 09:48:45;;;;;;;8.75;4.28;;;20.10;47.30;;;;;;4476375;32;20209;-67
2022/01/11 09:51:11;;;;;;;10.32;4.32;;;20.10;47.00;;;;;;4475671;32;20141;-65
2022/01/11 09:53:37;;;;;;;7.55;4.93;;;20.20;46.90;;;;;;4477196;32;20199;-65
2022/01/11 09:56:05;;;;;;;12.70;4.68;;;20.30;46.70;;;;;;4479035;32;20271;-65
2022/01/11 09:58:32;;;;;;;9.95;5.00;;;20.40;46.60;;;;;;4478033;32;20148;-66
2022/01/11 10:00:59;;;;;;;8.10;4.63;;;20.50;46.40;;;;;;4471961;32;20138;-67
2022/01/11 10:03:25;;;;;;;6.25;4.03;;;20.60;46.20;;;;;;4463974;32;20593;-66
2022/01/11 10:05:52;;;;;;;8.43;4.78;;;20.70;46.10;;;;;;4470303;32;20132;-67
2022/01/11 10:08:27;;;;;;;7.45;4.30;;;20.80;46.00;;;;;;4482037;32;20129;-66
2022/01/11 10:10:57;;;;;;;6.20;4.03;;;20.80;45.70;;;;;;4481816;32;20117;-67
2022/01/11 10:13:34;;;;;;;5.63;4.00;;;20.90;45.60;;;;;;4482115;32;20585;-66
2022/01/11 10:16:19;;;;;;;6.10;4.18;;;21.00;45.50;;;;;;4479211;32;20136;-66
2022/01/11 10:18:45;;;;;;;6.75;4.05;;;21.10;45.40;;;;;;4482013;31;20141;-66
2022/01/11 10:21:50;;;;;;;6.25;4.25;;;21.10;46.10;;;;;;4493997;31;20140;-66
2022/01/11 10:24:38;;;;;;;9.93;4.05;;;21.20;45.20;;;;;;4448524;32;20207;-66
2022/01/11 10:27:19;;;;;;;7.18;4.20;;;21.30;45.10;;;;;;4449177;32;20271;-67
2022/01/11 10:30:08;;;;;;;6.65;4.18;;;21.30;44.90;;;;;;4432764;31;24600;-66
2022/01/11 10:32:39;;;;;;;5.50;3.80;;;21.40;45.00;;;;;;4481871;32;20125;-67
2022/01/11 10:35:10;;;;;;;9.20;4.70;;;21.40;45.00;;;;;;4493307;31;20267;-66
2022/01/11 10:37:42;;;;;;;5.05;3.47;;;21.40;44.90;;;;;;4493041;31;20612;-66
2022/01/11 10:40:17;;;;;;;5.53;3.67;;;21.40;45.00;;;;;;4478024;31;20121;-66
2022/01/11 10:42:49;;;;;;;5.30;3.63;;;21.50;45.00;;;;;;4493799;31;20287;-65
2022/01/11 10:45:17;;;;;;;5.60;3.80;;;21.50;45.10;;;;;;4478978;32;20202;-64
2022/01/11 10:47:47;;;;;;;5.93;3.50;;;21.50;44.90;;;;;;4481249;31;20141;-65
2022/01/11 10:50:22;;;;;;;5.50;3.58;;;21.60;44.90;;;;;;4480743;32;20294;-64
2022/01/11 10:52:48;;;;;;;7.10;3.70;;;21.60;44.80;;;;;;4475104;31;20145;-65
2022/01/11 10:55:19;;;;;;;5.05;4.07;;;21.60;44.60;;;;;;4479724;32;20149;-65
2022/01/11 10:57:52;;;;;;;5.18;3.60;;;21.70;44.60;;;;;;4478748;31;20136;-65
2022/01/11 11:00:20;;;;;;;4.55;3.15;;;21.70;44.50;;;;;;4481258;32;20135;-65
2022/01/11 11:03:12;;;;;;;4.78;3.38;;;21.80;44.50;;;;;;4493124;31;20282;-65
2022/01/11 11:05:39;;;;;;;5.25;3.78;;;21.80;44.30;;;;;;4477178;32;20136;-65
2022/01/11 11:08:25;;;;;;;5.22;3.72;;;21.80;44.30;;;;;;4480826;31;20129;-66
2022/01/11 11:10:56;;;;;;;4.90;3.60;;;21.90;44.20;;;;;;4481311;31;20136;-66
2022/01/11 11:13:34;;;;;;;5.15;3.30;;;21.90;44.00;;;;;;4481594;31;20147;-66
2022/01/11 11:16:12;;;;;;;5.57;3.70;;;21.90;44.00;;;;;;4473699;31;20134;-66
2022/01/11 11:18:39;;;;;;;5.68;3.50;;;22.00;43.90;;;;;;4476634;32;20194;-66
2022/01/11 11:21:19;;;;;;;5.30;3.67;;;21.90;43.70;;;;;;4475279;32;20129;-65
2022/01/11 11:23:46;;;;;;;6.50;3.85;;;21.80;43.70;;;;;;4469741;32;20156;-66
2022/01/11 11:26:13;;;;;;;4.75;3.58;;;21.70;43.90;;;;;;4492109;31;20125;-66
2022/01/11 11:28:40;;;;;;;5.25;3.72;;;21.60;44.10;;;;;;4468642;32;20138;-66
2022/01/11 11:31:06;;;;;;;6.60;3.30;;;21.50;44.30;;;;;;4455154;31;21885;-67
2022/01/11 11:33:35;;;;;;;5.82;3.60;;;21.30;44.60;;;;;;4481170;32;20125;-68
2022/01/11 11:36:02;;;;;;;11.70;4.40;;;21.20;44.90;;;;;;4480956;32;20141;-68
2022/01/11 11:38:33;;;;;;;4.82;3.60;;;21.10;45.30;;;;;;4481249;32;20149;-68
2022/01/11 11:41:01;;;;;;;6.97;4.13;;;20.90;45.50;;;;;;4480903;32;20151;-68
2022/01/11 11:43:29;;;;;;;4.43;3.55;;;20.80;45.70;;;;;;4480971;32;20356;-68
2022/01/11 11:45:55;;;;;;;5.57;3.78;;;20.80;46.00;;;;;;4480683;32;20282;-68
2022/01/11 11:48:26;;;;;;;11.63;3.67;;;20.60;46.10;;;;;;4481312;32;20136;-68
2022/01/11 11:51:07;;;;;;;5.40;3.50;;;20.70;46.30;;;;;;4480785;32;20133;-68
2022/01/11 11:53:36;;;;;;;4.57;3.45;;;20.60;46.30;;;;;;4480569;32;20168;-67
2022/01/11 11:56:15;;;;;;;5.07;3.70;;;20.60;46.30;;;;;;4480908;32;20951;-68
2022/01/11 11:58:44;;;;;;;6.43;3.72;;;20.70;46.30;;;;;;4480665;32;20238;-68
2022/01/11 12:01:28;;;;;;;5.65;3.42;;;20.70;46.30;;;;;;4480995;32;20121;-67
2022/01/11 12:03:54;;;;;;;27.40;8.45;;;20.70;46.20;;;;;;4452642;32;20633;-67
2022/01/11 12:06:31;;;;;;;20.75;7.43;;;20.80;46.30;;;;;;4468776;31;20125;-66
2022/01/11 12:09:06;;;;;;;32.53;9.85;;;20.80;46.30;;;;;;4473957;31;20132;-65
2022/01/11 12:11:47;;;;;;;39.05;11.35;;;20.90;46.30;;;;;;4478594;31;20129;-66
2022/01/11 12:14:33;;;;;;;33.20;10.23;;;20.90;46.40;;;;;;4463929;31;20630;-66
2022/01/11 12:17:23;;;;;;;27.65;9.93;;;21.00;46.40;;;;;;4479348;31;20152;-67
2022/01/11 12:19:51;;;;;;;28.85;10.18;;;21.00;46.30;;;;;;4478877;31;20140;-66
2022/01/11 12:22:20;;;;;;;28.52;10.38;;;21.10;46.10;;;;;;4479822;31;20140;-67
2022/01/11 12:24:48;;;;;;;31.63;10.13;;;21.20;45.90;;;;;;4473381;31;20125;-67
2022/01/11 12:27:16;;;;;;;24.70;9.00;;;21.20;45.70;;;;;;4476830;31;20110;-67
2022/01/11 12:29:54;;;;;;;26.08;9.38;;;21.30;45.60;;;;;;4457743;31;20194;-68
2022/01/11 12:32:20;;;;;;;21.17;8.18;;;21.30;45.50;;;;;;4474936;31;20152;-66
2022/01/11 12:34:46;;;;;;;21.33;8.75;;;21.40;45.10;;;;;;4480489;31;20143;-68
2022/01/11 12:37:45;;;;;;;23.00;9.30;;;21.40;44.50;;;;;;4479538;31;20173;-68
2022/01/11 12:40:20;;;;;;;19.88;8.60;;;21.50;43.90;;;;;;4479451;31;20101;-71
2022/01/11 12:42:57;;;;;;;18.88;7.78;;;21.50;43.10;;;;;;4475299;31;20255;-68
2022/01/11 12:46:03;;;;;;;16.83;7.95;;;21.50;42.50;;;;;;4479978;32;20139;-67
2022/01/11 12:48:48;;;;;;;19.23;7.15;;;21.60;42.30;;;;;;4469634;32;20214;-69
2022/01/11 12:51:38;;;;;;;13.18;6.50;;;21.60;42.20;;;;;;4466257;32;20155;-68
2022/01/11 12:54:26;;;;;;;12.18;6.28;;;21.60;42.10;;;;;;4472426;31;20130;-67
2022/01/11 12:56:58;;;;;;;13.52;6.63;;;21.70;42.00;;;;;;4479894;32;20275;-68